Richardson, Wisconsin
Current Conditions -  °F | °C
As of 9:35 PM on Sunday 21 Dec 2014 (Local Time) from KUBE Reporting Station
Drizzle Drizzle  
Wind Chill: 28°   Ceiling: 200
Heat Index: 34°   Visibility: 2mi
Dew Point: 32°   Wind: 7mph
Humidity: 93%   Direction: 140°SE
Pressure: 29.75"   Gusts: NA
Location:  45.3064°N, 92.1345°W
Report Text: KUBE 220335Z AUTO 14006KT 2SM -DZ OVC002 01/00 A2975 RMK AO2
Loading
Personal Weather Stations






























Interactive Weather Map New forecast layout! Learn more

10-Day Weather Forecast

Advertisements
Track Severe Weather on mobile